Time;durP1;ratioP1;P1;durP2;ratioP2;P2;SDS_P1;SDS_P2;PMS_P1;PMS_P2;Temp;Humidity;BMP_temperature;BMP_pressure;BME280_temperature;BME280_humidity;BME280_pressure;Samples;Min_cycle;Max_cycle;Signal;HPM_P1;HPM_P2
2023/06/02 00:00:38;;;;;;;12.93;2.50;;;;;;;;;;4928783;29;20461;-92
2023/06/02 00:03:29;;;;;;;13.68;3.53;;;;;;;;;;4956811;28;20041;-91
2023/06/02 00:06:14;;;;;;;25.75;4.30;;;;;;;;;;4942221;29;20498;-92
2023/06/02 00:08:59;;;;;;;20.83;3.33;;;;;;;;;;4956270;28;20094;-93
2023/06/02 00:11:44;;;;;;;18.83;3.72;;;;;;;;;;4956757;29;20553;-93
2023/06/02 00:14:28;;;;;;;19.08;4.22;;;;;;;;;;4930395;29;20033;-93
2023/06/02 00:17:13;;;;;;;18.30;3.08;;;;;;;;;;4956617;28;20054;-93
2023/06/02 00:20:00;;;;;;;10.63;3.00;;;;;;;;;;4952082;28;20049;-92
2023/06/02 00:22:46;;;;;;;19.63;3.95;;;;;;;;;;4956944;28;20066;-94
2023/06/02 00:25:31;;;;;;;14.95;2.60;;;;;;;;;;4942297;28;20046;-91
2023/06/02 00:28:15;;;;;;;19.85;3.65;;;;;;;;;;4966897;28;20042;-94
2023/06/02 00:31:00;;;;;;;11.50;2.95;;;;;;;;;;4941495;28;20046;-92
2023/06/02 00:33:45;;;;;;;18.60;2.92;;;;;;;;;;4929013;29;20046;-92
2023/06/02 00:36:32;;;;;;;18.02;2.78;;;;;;;;;;4929547;29;20035;-91
2023/06/02 00:39:16;;;;;;;9.27;2.55;;;;;;;;;;4937071;29;20034;-93
2023/06/02 00:42:01;;;;;;;13.70;2.35;;;;;;;;;;4941361;29;21233;-93
2023/06/02 00:44:46;;;;;;;19.15;3.05;;;;;;;;;;4956692;28;20050;-92
2023/06/02 00:47:31;;;;;;;14.68;2.78;;;;;;;;;;4942750;28;20101;-93
2023/06/02 00:50:16;;;;;;;16.65;4.00;;;;;;;;;;4956128;28;20467;-92
2023/06/02 00:53:00;;;;;;;13.43;3.55;;;;;;;;;;4928055;29;20070;-93
2023/06/02 00:55:45;;;;;;;19.27;3.30;;;;;;;;;;4941976;28;20046;-92
2023/06/02 00:58:30;;;;;;;18.45;3.05;;;;;;;;;;4941771;29;20070;-92
2023/06/02 01:01:18;;;;;;;15.13;3.20;;;;;;;;;;4955834;29;20046;-92
2023/06/02 01:04:03;;;;;;;16.95;2.83;;;;;;;;;;4943774;29;20038;-93
2023/06/02 01:06:49;;;;;;;13.32;2.75;;;10.60;99.90;;;;;;4955600;29;20046;-94
2023/06/02 01:09:34;;;;;;;16.05;3.03;;;;;;;;;;4941016;28;20491;-92
2023/06/02 01:12:19;;;;;;;17.60;3.00;;;;;;;;;;4955702;28;20058;-92
2023/06/02 01:15:04;;;;;;;21.33;3.80;;;;;;;;;;4955132;29;20042;-92
2023/06/02 01:17:51;;;;;;;10.25;3.15;;;;;;;;;;4940637;29;20046;-92
2023/06/02 01:20:37;;;;;;;17.08;2.92;;;;;;;;;;4928015;29;20046;-92
2023/06/02 01:23:24;;;;;;;15.60;3.95;;;;;;;;;;4955364;28;20050;-92
2023/06/02 01:26:11;;;;;;;15.00;2.75;;;;;;;;;;4940231;29;20067;-92
2023/06/02 01:28:56;;;;;;;14.30;2.60;;;;;;;;;;4941064;29;20098;-93
2023/06/02 01:31:47;;;;;;;11.35;2.78;;;;;;;;;;4940720;28;20046;-92
2023/06/02 01:34:33;;;;;;;16.02;3.67;;;;;;;;;;4940867;29;20097;-92
2023/06/02 01:37:19;;;;;;;11.98;2.50;;;;;;;;;;4940229;29;20046;-92
2023/06/02 01:40:05;;;;;;;17.90;3.78;;;;;;;;;;4939884;29;20042;-92
2023/06/02 01:42:50;;;;;;;12.85;2.88;;;;;;;;;;4940812;29;20171;-92
2023/06/02 01:45:38;;;;;;;15.38;3.35;;;;;;;;;;4940488;28;20090;-92
2023/06/02 01:48:28;;;;;;;15.85;2.83;;;10.50;99.90;;;;;;4955135;29;20518;-92
2023/06/02 01:51:13;;;;;;;12.40;2.97;;;;;;;;;;4939898;29;20046;-92
2023/06/02 01:53:57;;;;;;;13.60;3.20;;;;;;;;;;4954969;29;20042;-93
2023/06/02 01:56:42;;;;;;;16.90;3.20;;;;;;;;;;4954898;29;20042;-92
2023/06/02 01:59:27;;;;;;;13.18;3.10;;;;;;;;;;4940502;29;20058;-93
2023/06/02 02:02:11;;;;;;;18.75;3.20;;;;;;;;;;4953652;29;20539;-93
2023/06/02 02:04:55;;;;;;;14.10;3.08;;;;;;;;;;4939751;28;20400;-92
2023/06/02 02:07:44;;;;;;;15.63;2.60;;;;;;;;;;4954461;29;20403;-92
2023/06/02 02:10:28;;;;;;;12.75;2.58;;;;;;;;;;4940178;29;20083;-93
2023/06/02 02:13:13;;;;;;;16.33;3.08;;;;;;;;;;4939906;29;20408;-92
2023/06/02 02:15:58;;;;;;;14.45;2.70;;;;;;;;;;4942824;29;20041;-92
2023/06/02 02:18:43;;;;;;;10.43;2.00;;;;;;;;;;4954533;28;20043;-93
2023/06/02 02:21:27;;;;;;;15.27;2.85;;;;;;;;;;4926773;29;20070;-93
2023/06/02 02:24:12;;;;;;;16.73;2.95;;;;;;;;;;4953595;28;20034;-92
2023/06/02 02:26:57;;;;;;;23.15;3.35;;;;;;;;;;4954364;28;20495;-93
2023/06/02 02:29:42;;;;;;;16.73;4.28;;;;;;;;;;4954181;29;20043;-93
2023/06/02 02:32:26;;;;;;;13.43;3.03;;;;;;;;;;4953746;28;20038;-93
2023/06/02 02:35:11;;;;;;;12.02;2.72;;;;;;;;;;4953752;29;20050;-94
2023/06/02 02:37:56;;;;;;;14.07;2.60;;;;;;;;;;4939835;29;20089;-93
2023/06/02 02:40:41;;;;;;;17.45;3.33;;;;;;;;;;4950874;28;20560;-93
2023/06/02 02:43:25;;;;;;;14.40;2.88;;;;;;;;;;4937738;29;20058;-94
2023/06/02 02:46:10;;;;;;;14.40;3.15;;;;;;;;;;4950215;29;20126;-93
2023/06/02 02:48:54;;;;;;;19.35;2.60;;;;;;;;;;4953748;28;20046;-93
2023/06/02 02:51:39;;;;;;;15.45;2.95;;;;;;;;;;4939434;29;20122;-93
2023/06/02 02:54:25;;;;;;;15.68;3.50;;;;;;;;;;4939308;29;20131;-94
2023/06/02 02:57:10;;;;;;;14.82;3.05;;;;;;;;;;4953396;28;20399;-92
2023/06/02 02:59:55;;;;;;;16.92;3.80;;;;;;;;;;4939556;29;20054;-92
2023/06/02 03:02:40;;;;;;;14.98;2.63;;;;;;;;;;4927008;29;20047;-93
2023/06/02 03:05:25;;;;;;;12.30;3.10;;;;;;;;;;4939417;29;20047;-92
2023/06/02 03:08:09;;;;;;;18.10;3.58;;;;;;;;;;4939366;29;20069;-92
2023/06/02 03:10:55;;;;;;;15.13;3.13;;;;;;;;;;4954088;29;20086;-93
2023/06/02 03:13:39;;;;;;;18.63;2.63;;;;;;;;;;4954129;29;20089;-93
2023/06/02 03:16:25;;;;;;;15.32;2.90;;;;;;;;;;4939017;29;20122;-92
2023/06/02 03:19:10;;;;;;;17.13;3.05;;;;;;;;;;4939251;29;20046;-92
2023/06/02 03:21:58;;;;;;;13.23;3.38;;;;;;;;;;4954040;29;20491;-92
2023/06/02 03:24:43;;;;;;;15.45;2.88;;;;;;;;;;4953951;29;20042;-91
2023/06/02 03:27:27;;;;;;;17.77;2.83;;;;;;;;;;4938963;28;20050;-93
2023/06/02 03:30:12;;;;;;;17.35;2.88;;;;;;;;;;4939151;29;20062;-93
2023/06/02 03:32:56;;;;;;;15.55;3.55;;;;;;;;;;4939408;29;20507;-92
2023/06/02 03:35:41;;;;;;;16.98;3.42;;;;;;;;;;4939011;29;20046;-92
2023/06/02 03:38:25;;;;;;;10.52;2.60;;;;;;;;;;4940276;28;20039;-92
2023/06/02 03:41:10;;;;;;;13.00;2.55;;;;;;;;;;4941119;28;20078;-92
2023/06/02 03:43:54;;;;;;;16.33;3.30;;;;;;;;;;4929286;29;20062;-92
2023/06/02 03:46:39;;;;;;;12.80;2.70;;;;;;;;;;4957241;28;20090;-92
2023/06/02 03:49:29;;;;;;;13.70;2.90;;;;;;;;;;4956562;28;20506;-93
2023/06/02 03:52:14;;;;;;;13.00;2.80;;;;;;;;;;4918342;29;20034;-93
2023/06/02 03:54:58;;;;;;;17.90;3.28;;;;;;;;;;4942208;28;20050;-92
2023/06/02 03:57:43;;;;;;;16.50;3.08;;;;;;;;;;4957126;29;20062;-92
2023/06/02 04:00:28;;;;;;;14.55;2.80;;;;;;;;;;4941961;29;20042;-92
2023/06/02 04:03:13;;;;;;;13.40;2.92;;;;;;;;;;4942285;29;20519;-92
2023/06/02 04:05:58;;;;;;;13.23;3.08;;;;;;;;;;4942291;29;20087;-93
2023/06/02 04:08:42;;;;;;;11.63;2.58;;;;;;;;;;4942107;29;20050;-92
2023/06/02 04:11:27;;;;;;;19.70;3.70;;;;;;;;;;4941703;29;20431;-92
2023/06/02 04:14:12;;;;;;;23.65;4.75;;;;;;;;;;4943472;29;20087;-92
2023/06/02 04:16:57;;;;;;;21.65;3.30;;;;;;;;;;4928617;28;20045;-93
2023/06/02 04:19:42;;;;;;;14.93;2.42;;;;;;;;;;4956573;28;20058;-93
2023/06/02 04:22:26;;;;;;;17.75;3.20;;;;;;;;;;4956027;28;20058;-92
2023/06/02 04:25:11;;;;;;;13.63;3.00;;;;;;;;;;4942113;29;20122;-92
2023/06/02 04:27:55;;;;;;;16.90;3.13;;;;;;;;;;4944064;29;20404;-92
2023/06/02 04:30:40;;;;;;;19.95;3.05;;;;;;;;;;4957360;28;20113;-93
2023/06/02 04:33:25;;;;;;;15.70;2.97;;;;;;;;;;4928964;29;20058;-93
2023/06/02 04:36:10;;;;;;;19.75;4.35;;;;;;;;;;4969643;28;20030;-93
2023/06/02 04:38:55;;;;;;;14.70;3.53;;;;;;;;;;4955210;28;20439;-92
2023/06/02 04:41:40;;;;;;;14.85;3.47;;;;;;;;;;4941431;28;20086;-92
2023/06/02 04:44:25;;;;;;;14.80;3.45;;;;;;;;;;4952840;29;20038;-92
2023/06/02 04:47:10;;;;;;;15.65;2.60;;;;;;;;;;4941249;29;20092;-93
2023/06/02 04:49:55;;;;;;;14.75;3.38;;;;;;;;;;4955793;29;20050;-93
2023/06/02 04:52:43;;;;;;;20.20;3.75;;;;;;;;;;4954267;28;20046;-92
2023/06/02 04:55:28;;;;;;;16.40;3.20;;;;;;;;;;4941867;29;20046;-93
2023/06/02 04:58:12;;;;;;;13.98;3.05;;;;;;;;;;4940979;28;20527;-92
2023/06/02 05:00:57;;;;;;;15.77;3.47;;;;;;;;;;4941269;29;20123;-92
2023/06/02 05:03:41;;;;;;;16.13;2.78;;;;;;;;;;4954892;28;20046;-92
2023/06/02 05:06:26;;;;;;;18.95;3.75;;;;;;;;;;4955061;29;20123;-92
2023/06/02 05:09:10;;;;;;;12.20;3.83;;;;;;;;;;4941146;29;20523;-92
2023/06/02 05:11:55;;;;;;;18.17;3.88;;;;;;;;;;4955076;28;20407;-92
2023/06/02 05:14:40;;;;;;;23.73;4.13;;;;;;;;;;4954630;28;20446;-92
2023/06/02 05:17:28;;;;;;;15.93;3.28;;;;;;;;;;4940388;28;20089;-93
2023/06/02 05:20:13;;;;;;;12.27;3.33;;;;;;;;;;4955319;29;20082;-93
2023/06/02 05:22:58;;;;;;;16.15;3.33;;;;;;;;;;4940438;29;20062;-93
2023/06/02 05:25:42;;;;;;;19.27;3.25;;;;;;;;;;4939976;29;20057;-93
2023/06/02 05:28:27;;;;;;;14.57;3.00;;;;;;;;;;4940100;29;20094;-93
2023/06/02 05:31:12;;;;;;;14.10;3.55;;;;;;;;;;4941729;29;20158;-91
2023/06/02 05:33:56;;;;;;;17.27;3.67;;;;;;;;;;4935491;29;20042;-92
2023/06/02 05:36:41;;;;;;;18.35;3.58;;;;;;;;;;4954767;29;20098;-92
2023/06/02 05:39:25;;;;;;;18.42;3.25;;;;;;;;;;4944350;28;20410;-92
2023/06/02 05:42:10;;;;;;;13.48;3.13;;;;;;;;;;4933286;29;20074;-92
2023/06/02 05:44:55;;;;;;;16.83;3.22;;;;;;;;;;4921622;28;20113;-93
2023/06/02 05:47:39;;;;;;;15.88;4.03;;;;;;;;;;4938777;28;20133;-93
2023/06/02 05:50:24;;;;;;;20.25;3.10;;;;;;;;;;4952982;29;20042;-93
2023/06/02 05:53:09;;;;;;;14.95;4.35;;;;;;;;;;4979801;28;20046;-92
2023/06/02 05:55:54;;;;;;;14.82;3.10;;;;;;;;;;4985727;28;20059;-91
2023/06/02 05:58:39;;;;;;;24.95;4.72;;;;;;;;;;4965133;28;20061;-92
2023/06/02 06:01:24;;;;;;;25.98;4.95;;;;;;;;;;4977344;28;20102;-93
2023/06/02 06:04:08;;;;;;;20.60;4.63;;;;;;;;;;4966486;28;20042;-92
2023/06/02 06:06:53;;;;;;;22.88;3.70;;;;;;;;;;4928573;28;20098;-93
2023/06/02 06:09:37;;;;;;;19.77;3.60;;;;;;;;;;4949094;28;20050;-93
2023/06/02 06:12:22;;;;;;;16.70;3.85;;;;;;;;;;4943221;28;20069;-93
2023/06/02 06:15:07;;;;;;;17.30;4.00;;;;;;;;;;4929827;29;20050;-93
2023/06/02 06:17:53;;;;;;;20.38;4.90;;;;;;;;;;4939980;29;20119;-93
2023/06/02 06:20:37;;;;;;;22.83;4.10;;;;;;;;;;4947587;28;20089;-92
2023/06/02 06:23:22;;;;;;;16.13;4.95;;;;;;;;;;4942607;29;20045;-91
2023/06/02 06:26:07;;;;;;;18.25;3.85;;;;;;;;;;4954733;29;20081;-89
2023/06/02 06:28:52;;;;;;;22.90;4.47;;;;;;;;;;4939812;28;20046;-93
2023/06/02 06:31:37;;;;;;;24.40;3.78;;;;;;;;;;4940029;29;20142;-94
2023/06/02 06:34:21;;;;;;;23.83;4.00;;;;;;;;;;4958631;28;20042;-94
2023/06/02 06:37:06;;;;;;;19.05;4.50;;;;;;;;;;4940293;29;20050;-93
2023/06/02 06:39:50;;;;;;;17.15;4.78;;;;;;;;;;4951696;29;20067;-94
2023/06/02 06:42:35;;;;;;;28.20;4.28;;;;;;;;;;4909034;29;20412;-94
2023/06/02 06:45:19;;;;;;;16.38;4.15;;;;;;;;;;4924028;29;20076;-92
2023/06/02 06:48:06;;;;;;;18.20;4.47;;;;;;;;;;4945842;29;20118;-92
2023/06/02 06:50:51;;;;;;;29.55;5.55;;;;;;;;;;4928317;29;20039;-92
2023/06/02 06:53:36;;;;;;;26.85;5.95;;;;;;;;;;4919343;29;20152;-93
2023/06/02 06:56:21;;;;;;;23.45;4.72;;;;;;;;;;4934047;29;20042;-92
2023/06/02 06:59:06;;;;;;;18.92;4.07;;;;;;;;;;4920348;29;20079;-92
2023/06/02 07:01:50;;;;;;;18.38;4.55;;;;;;;;;;4934603;29;20095;-92
2023/06/02 07:04:35;;;;;;;20.00;4.55;;;;;;;;;;4934984;29;20089;-92
2023/06/02 07:07:19;;;;;;;21.13;4.50;;;;;;;;;;4934673;29;20114;-92
2023/06/02 07:10:04;;;;;;;18.58;4.22;;;;;;;;;;4919839;29;20062;-93
2023/06/02 07:12:49;;;;;;;22.40;4.95;;;;;;;;;;4933543;29;20051;-91
2023/06/02 07:15:34;;;;;;;18.35;4.30;;;;;;;;;;4923728;29;20050;-91
2023/06/02 07:18:18;;;;;;;17.90;4.55;;;;;;;;;;4925407;29;20090;-92
2023/06/02 07:21:03;;;;;;;20.35;4.10;;;;;;;;;;4910660;29;20051;-92
2023/06/02 07:23:47;;;;;;;19.27;4.18;;;;;;;;;;4937610;29;20051;-91
2023/06/02 07:26:32;;;;;;;24.75;5.70;;;;;;;;;;4914628;29;20142;-93
2023/06/02 07:29:16;;;;;;;20.60;4.25;;;;;;;;;;4947150;29;20090;-91
2023/06/02 07:32:01;;;;;;;16.33;4.85;;;;;;;;;;4926468;29;20094;-93
2023/06/02 07:34:46;;;;;;;23.00;4.80;;;;;;;;;;4926280;29;20189;-91
2023/06/02 07:37:30;;;;;;;13.70;3.78;;;;;;;;;;4938316;29;20054;-91
2023/06/02 07:40:15;;;;;;;17.80;4.30;;;;;;;;;;4938412;29;20106;-92
2023/06/02 07:42:59;;;;;;;13.20;4.90;;;;;;;;;;4942441;29;20087;-91
2023/06/02 07:45:44;;;;;;;16.20;4.20;;;;;;;;;;4956854;29;20452;-92
2023/06/02 07:48:28;;;;;;;18.45;4.00;;;;;;;;;;4931623;29;20051;-91
2023/06/02 07:51:13;;;;;;;43.15;5.80;;;;;;;;;;4942586;28;20062;-91
2023/06/02 07:53:57;;;;;;;19.45;5.15;;;;;;;;;;4928480;29;20098;-91
2023/06/02 07:56:42;;;;;;;21.50;4.00;;;;;;;;;;4956672;28;20065;-93
2023/06/02 07:59:27;;;;;;;14.73;4.03;;;;;;;;;;4942791;29;20454;-91
2023/06/02 08:02:11;;;;;;;15.18;3.53;;;;;;;;;;4956853;29;20089;-92
2023/06/02 08:04:56;;;;;;;18.00;4.22;;;;;;;;;;4956437;29;20046;-91
2023/06/02 08:07:41;;;;;;;17.90;4.47;;;;;;;;;;4931358;29;20077;-91
2023/06/02 08:10:26;;;;;;;17.75;4.07;;;;;;;;;;4956712;29;20083;-92
2023/06/02 08:13:11;;;;;;;16.73;3.17;;;;;;;;;;4941963;29;20042;-92
2023/06/02 08:15:55;;;;;;;14.93;3.25;;;18.20;99.90;;;;;;4929044;29;20102;-92
2023/06/02 08:18:39;;;;;;;8.75;2.97;;;;;;;;;;4956550;28;20075;-90
2023/06/02 08:21:24;;;;;;;13.45;3.50;;;;;;;;;;4956108;28;20054;-92
2023/06/02 08:24:08;;;;;;;10.00;3.05;;;;;;;;;;4927690;28;20106;-91
2023/06/02 08:26:54;;;;;;;12.63;4.13;;;;;;;;;;4927481;29;20539;-92
2023/06/02 08:29:38;;;;;;;12.55;3.03;;;;;;;;;;4944288;29;20046;-92
2023/06/02 08:32:24;;;;;;;15.65;3.88;;;;;;;;;;4941956;29;20086;-94
2023/06/02 08:35:09;;;;;;;14.50;3.17;;;;;;;;;;4940819;29;20042;-92
2023/06/02 08:37:53;;;;;;;10.45;3.30;;;;;;;;;;4940012;29;20070;-92
2023/06/02 08:40:39;;;;;;;10.00;2.50;;;18.60;99.90;;;;;;4956339;29;20069;-92
2023/06/02 08:43:24;;;;;;;12.00;3.40;;;;;;;;;;4956379;28;20066;-91
2023/06/02 08:46:14;;;;;;;10.02;3.22;;;19.10;99.90;;;;;;4941146;28;20158;-93
2023/06/02 08:48:59;;;;;;;10.63;3.78;;;;;;;;;;4955562;28;20049;-91
2023/06/02 08:51:44;;;;;;;14.70;2.47;;;;;;;;;;4943695;29;20551;-92
2023/06/02 08:54:30;;;;;;;8.52;2.28;;;;;;;;;;4955957;29;20070;-92
2023/06/02 08:57:16;;;;;;;9.38;2.58;;;;;;;;;;4928488;29;20042;-93
2023/06/02 09:00:00;;;;;;;7.40;1.92;;;;;;;;;;4927524;29;20087;-92
2023/06/02 09:02:47;;;;;;;5.43;1.65;;;20.20;96.70;;;;;;4941482;29;20078;-92
2023/06/02 09:05:32;;;;;;;8.27;2.13;;;;;;;;;;4955555;29;20042;-93
2023/06/02 09:08:17;;;;;;;9.15;2.10;;;;;;;;;;4940864;29;20620;-92
2023/06/02 09:11:15;;;;;;;8.05;1.98;;;20.40;93.70;;;;;;4927370;29;20101;-92
2023/06/02 09:13:59;;;;;;;8.85;2.47;;;;;;;;;;4954894;29;20090;-91
2023/06/02 09:16:44;;;;;;;11.23;2.35;;;;;;;;;;4955407;29;20071;-92
2023/06/02 09:19:52;;;;;;;9.38;2.22;;;20.50;99.90;;;;;;4955694;29;20038;-91
2023/06/02 09:22:52;;;;;;;14.75;2.33;;;;;;;;;;4927901;29;20469;-91
2023/06/02 09:25:40;;;;;;;10.55;2.20;;;;;;;;;;4955393;28;20066;-91
2023/06/02 09:28:25;;;;;;;6.53;1.70;;;;;;;;;;4940859;29;20125;-92
2023/06/02 09:31:10;;;;;;;4.95;1.90;;;;;;;;;;4940261;29;20116;-91
2023/06/02 09:34:00;;;;;;;12.15;1.90;;;20.30;92.00;;;;;;4954956;28;20106;-91
2023/06/02 09:36:48;;;;;;;5.20;2.25;;;20.60;92.10;;;;;;4955590;29;20050;-92
2023/06/02 09:39:33;;;;;;;8.65;1.70;;;;;;;;;;4954678;28;20049;-90
2023/06/02 09:42:18;;;;;;;5.45;1.55;;;;;;;;;;4939730;29;20216;-90
2023/06/02 09:45:07;;;;;;;7.38;1.52;;;21.60;99.90;;;;;;4942531;29;20045;-91
2023/06/02 09:47:52;;;;;;;7.38;2.38;;;;;;;;;;4939689;29;20078;-92
2023/06/02 09:50:37;;;;;;;7.60;1.55;;;;;;;;;;4954977;29;20038;-92
2023/06/02 09:53:22;;;;;;;5.57;1.83;;;;;;;;;;4913364;29;20047;-91
2023/06/02 09:56:07;;;;;;;5.95;1.60;;;;;;;;;;4954577;29;20041;-92
2023/06/02 09:58:54;;;;;;;5.07;1.63;;;21.40;85.70;;;;;;4954480;28;20152;-90
2023/06/02 10:01:38;;;;;;;8.50;1.80;;;;;;;;;;4954257;28;20460;-89
2023/06/02 10:04:23;;;;;;;9.30;1.70;;;;;;;;;;4953357;29;20038;-90
2023/06/02 10:07:13;;;;;;;4.05;1.75;;;;;;;;;;4954373;29;20046;-90
2023/06/02 10:10:06;;;;;;;5.13;1.50;;;;;;;;;;4954885;29;20046;-91
2023/06/02 10:12:57;;;;;;;5.28;1.65;;;;;;;;;;4954692;29;20107;-90
2023/06/02 10:16:01;;;;;;;5.57;2.05;;;21.00;80.00;;;;;;4954265;28;20038;-90
2023/06/02 10:18:51;;;;;;;;;;;21.00;80.20;;;;;;4954804;28;20069;-91
2023/06/02 10:21:42;;;;;;;6.28;1.70;;;20.50;97.00;;;;;;4954547;29;19917;-91
2023/06/02 10:24:48;;;;;;;6.68;3.47;;;21.90;97.50;;;;;;4941157;28;20515;-90
2023/06/02 10:27:34;;;;;;;6.38;1.58;;;;;;;;;;4954212;28;20046;-92
2023/06/02 10:30:20;;;;;;;6.80;1.88;;;21.60;79.00;;;;;;4953708;29;20883;-91
2023/06/02 10:33:06;;;;;;;4.35;1.40;;;;;;;;;;4953803;28;20083;-92
2023/06/02 10:35:59;;;;;;;7.18;1.67;;;;;;;;;;4939476;28;20066;-91
2023/06/02 10:38:45;;;;;;;4.40;1.50;;;;;;;;;;4939754;29;20047;-90
2023/06/02 10:42:24;;;;;;;7.20;1.60;;;22.50;77.40;;;;;;4941201;29;20106;-91
2023/06/02 10:45:18;;;;;;;5.97;1.40;;;;;;;;;;4843946;29;20048;-92
2023/06/02 10:48:22;;;;;;;5.13;1.60;;;;;;;;;;4952459;28;20042;-90
2023/06/02 10:51:08;;;;;;;3.92;1.58;;;;;;;;;;4941831;28;20522;-91
2023/06/02 10:53:52;;;;;;;3.95;1.17;;;;;;;;;;4958020;29;20098;-91
2023/06/02 10:56:40;;;;;;;3.53;1.40;;;;;;;;;;4943216;28;20042;-91
2023/06/02 10:59:31;;;;;;;4.47;1.48;;;;;;;;;;4957663;29;20058;-90
2023/06/02 11:02:41;;;;;;;4.30;1.35;;;22.30;69.80;;;;;;4942776;29;20531;-91
2023/06/02 11:05:31;;;;;;;5.15;1.40;;;22.60;98.00;;;;;;4957330;29;20614;-89
2023/06/02 11:08:18;;;;;;;4.15;1.52;;;;;;;;;;4942803;29;20054;-91
2023/06/02 11:11:03;;;;;;;3.67;1.40;;;;;;;;;;4957751;29;20066;-91
2023/06/02 11:13:58;;;;;;;4.97;1.27;;;22.70;90.00;;;;;;4929835;28;20416;-90
2023/06/02 11:16:42;;;;;;;6.05;1.48;;;22.80;90.30;;;;;;4957592;29;20049;-91
2023/06/02 11:19:49;;;;;;;3.88;1.20;;;22.70;65.60;;;;;;4944824;29;20067;-90
2023/06/02 11:22:34;;;;;;;6.50;1.52;;;;;;;;;;4942908;28;20042;-90
2023/06/02 11:25:18;;;;;;;4.70;1.20;;;;;;;;;;4956973;29;20105;-91
2023/06/02 11:28:03;;;;;;;3.47;1.30;;;;;;;;;;4945799;28;20105;-90
2023/06/02 11:30:48;;;;;;;2.80;1.30;;;;;;;;;;4942254;28;20085;-90
2023/06/02 11:33:34;;;;;;;4.15;1.70;;;23.00;61.40;;;;;;4942019;29;20042;-91
2023/06/02 11:36:25;;;;;;;3.95;1.20;;;;;;;;;;4943445;29;20533;-90
2023/06/02 11:39:09;;;;;;;7.60;1.40;;;;;;;;;;4957070;28;20395;-93
2023/06/02 11:41:57;;;;;;;3.97;1.08;;;;;;;;;;4928816;29;20065;-90
2023/06/02 11:44:51;;;;;;;6.63;1.50;;;22.90;61.90;;;;;;4956691;28;20136;-92
2023/06/02 11:47:35;;;;;;;;;;;22.90;59.40;;;;;;4957145;28;20057;-90
2023/06/02 11:50:20;;;;;;;5.30;1.70;;;;;;;;;;4955317;29;20295;-90
2023/06/02 11:53:14;;;;;;;5.15;1.58;;;22.80;60.70;;;;;;4956858;28;20119;-90
2023/06/02 11:55:59;;;;;;;7.30;1.40;;;;;;;;;;4942678;29;20042;-90
2023/06/02 11:58:45;;;;;;;3.90;1.40;;;23.00;61.00;;;;;;4956941;28;20447;-89
2023/06/02 12:01:33;;;;;;;5.15;1.45;;;;;;;;;;4955989;28;20042;-90
2023/06/02 12:04:17;;;;;;;5.47;1.75;;;21.90;85.50;;;;;;4956522;29;20461;-90
2023/06/02 12:07:02;;;;;;;6.07;1.70;;;;;;;;;;4942377;29;20189;-91
2023/06/02 12:09:49;;;;;;;5.47;1.50;;;;;;;;;;4942579;29;20106;-89
2023/06/02 12:12:34;;;;;;;5.72;1.73;;;;;;;;;;4956369;29;20086;-91
2023/06/02 12:15:18;;;;;;;4.60;1.60;;;;;;;;;;4941648;29;20042;-90
2023/06/02 12:18:04;;;;;;;5.93;1.30;;;;;;;;;;4942178;29;20062;-90
2023/06/02 12:20:48;;;;;;;7.82;1.70;;;;;;;;;;4956560;29;20042;-90
2023/06/02 12:23:45;;;;;;;3.08;1.30;;;;;;;;;;4941730;29;20554;-90
2023/06/02 12:26:39;;;;;;;4.15;1.50;;;22.80;61.20;;;;;;4947716;29;20042;-89
2023/06/02 12:29:25;;;;;;;5.47;1.80;;;;;;;;;;4956692;29;20069;-89
2023/06/02 12:32:10;;;;;;;5.78;1.85;;;;;;;;;;4942476;29;20050;-92
2023/06/02 12:34:54;;;;;;;8.02;1.70;;;;;;;;;;4951499;28;20116;-92
2023/06/02 12:37:42;;;;;;;5.70;1.70;;;;;;;;;;4945653;28;20074;-90
2023/06/02 12:40:27;;;;;;;5.93;1.60;;;;;;;;;;4955494;29;20070;-91
2023/06/02 12:43:14;;;;;;;9.60;2.03;;;22.50;64.60;;;;;;4916083;29;20506;-90
2023/06/02 12:45:59;;;;;;;8.60;2.00;;;;;;;;;;4928463;28;20062;-90
2023/06/02 12:48:43;;;;;;;7.10;2.30;;;;;;;;;;4956090;29;20058;-90
2023/06/02 12:51:28;;;;;;;5.45;2.47;;;;;;;;;;4955812;29;20074;-90
2023/06/02 12:54:12;;;;;;;6.68;2.10;;;;;;;;;;4941862;29;20400;-90
2023/06/02 12:56:57;;;;;;;5.78;2.17;;;;;;;;;;4941522;28;20126;-91
2023/06/02 12:59:41;;;;;;;7.05;2.20;;;;;;;;;;4956070;28;20549;-89
2023/06/02 13:02:26;;;;;;;6.60;2.22;;;;;;;;;;4929037;29;20439;-90
2023/06/02 13:05:11;;;;;;;6.10;2.03;;;21.00;71.30;;;;;;4941274;29;20038;-90
2023/06/02 13:07:56;;;;;;;4.65;1.83;;;;;;;;;;4945229;29;20043;-90
2023/06/02 13:10:40;;;;;;;7.47;2.55;;;20.40;93.80;;;;;;4953999;28;20050;-90
2023/06/02 13:13:25;;;;;;;16.60;2.92;;;;;;;;;;4939985;29;20042;-90
2023/06/02 13:16:09;;;;;;;6.00;2.30;;;;;;;;;;4941331;29;20059;-88
2023/06/02 13:18:55;;;;;;;4.63;2.15;;;;;;;;;;4955588;28;20050;-87
2023/06/02 13:21:41;;;;;;;6.65;2.42;;;;;;;;;;4940638;29;20062;-89
2023/06/02 13:24:25;;;;;;;7.95;2.65;;;;;;;;;;4926858;29;20053;-90
2023/06/02 13:27:11;;;;;;;12.02;3.03;;;;;;;;;;4955241;28;20046;-88
2023/06/02 13:29:55;;;;;;;7.10;2.33;;;;;;;;;;4941276;29;20050;-87
2023/06/02 13:32:40;;;;;;;7.55;2.30;;;;;;;;;;4954899;29;20178;-89
2023/06/02 13:35:24;;;;;;;6.32;2.10;;;;;;;;;;4940613;29;20531;-91
2023/06/02 13:38:09;;;;;;;5.07;1.95;;;;;;;;;;4943324;29;20090;-90
2023/06/02 13:40:55;;;;;;;9.45;2.40;;;;;;;;;;4923125;28;20062;-89
2023/06/02 13:43:39;;;;;;;6.35;2.42;;;;;;;;;;4940497;29;20095;-88
2023/06/02 13:46:24;;;;;;;13.68;3.15;;;;;;;;;;4940520;28;20034;-88
2023/06/02 13:49:08;;;;;;;7.75;2.58;;;20.30;96.70;;;;;;4940610;29;20531;-90
2023/06/02 13:51:52;;;;;;;6.93;2.47;;;;;;;;;;4943838;28;20038;-92
2023/06/02 13:54:37;;;;;;;8.10;2.85;;;;;;;;;;4940271;29;20039;-90
2023/06/02 13:57:22;;;;;;;9.50;2.70;;;;;;;;;;4954903;29;20392;-91
2023/06/02 14:00:07;;;;;;;10.75;3.03;;;;;;;;;;4940495;29;20077;-90
2023/06/02 14:02:51;;;;;;;7.05;3.03;;;;;;;;;;4926838;29;20041;-90
2023/06/02 14:05:36;;;;;;;7.57;2.83;;;;;;;;;;4954259;28;20046;-91
2023/06/02 14:08:21;;;;;;;9.52;3.35;;;;;;;;;;4954562;28;20110;-91
2023/06/02 14:11:05;;;;;;;7.63;2.95;;;;;;;;;;4929348;29;20049;-90
2023/06/02 14:13:49;;;;;;;9.38;3.22;;;;;;;;;;4939814;29;20089;-90
2023/06/02 14:16:34;;;;;;;12.45;3.17;;;20.40;95.70;;;;;;4954282;29;20062;-90
2023/06/02 14:19:19;;;;;;;9.32;3.47;;;20.00;96.10;;;;;;4927426;29;20046;-91
2023/06/02 14:22:03;;;;;;;9.57;3.60;;;;;;;;;;4954376;29;20042;-91
2023/06/02 14:24:48;;;;;;;7.63;3.53;;;;;;;;;;4939929;29;20042;-91
2023/06/02 14:27:33;;;;;;;12.50;3.05;;;;;;;;;;4926049;29;20050;-92
2023/06/02 14:30:18;;;;;;;14.15;3.40;;;;;;;;;;4939872;29;20114;-92
2023/06/02 14:33:02;;;;;;;11.15;3.45;;;;;;;;;;4928088;29;20431;-93
2023/06/02 14:35:49;;;;;;;8.35;3.10;;;;;;;;;;4939569;29;20046;-92
2023/06/02 14:38:35;;;;;;;7.05;3.25;;;;;;;;;;4940359;29;20107;-92
2023/06/02 14:41:20;;;;;;;11.52;3.28;;;;;;;;;;4954137;29;20050;-91
2023/06/02 14:44:04;;;;;;;8.55;3.17;;;;;;;;;;4939440;29;20086;-92
2023/06/02 14:46:49;;;;;;;8.80;3.85;;;;;;;;;;4953442;28;20058;-89
2023/06/02 14:49:34;;;;;;;12.30;3.58;;;;;;;;;;4953723;28;20526;-91
2023/06/02 14:52:19;;;;;;;11.32;3.80;;;;;;;;;;4954223;29;20097;-89
2023/06/02 14:55:04;;;;;;;9.43;4.03;;;;;;;;;;4939886;28;20034;-89
2023/06/02 14:57:48;;;;;;;12.13;3.63;;;19.80;99.90;;;;;;4926442;29;20098;-89
2023/06/02 15:00:33;;;;;;;6.28;3.03;;;;;;;;;;4954230;28;20134;-92
2023/06/02 15:03:17;;;;;;;8.82;3.58;;;;;;;;;;4954483;29;20507;-89
2023/06/02 15:06:03;;;;;;;9.70;3.50;;;;;;;;;;4954429;29;20038;-88
2023/06/02 15:08:48;;;;;;;11.32;4.05;;;;;;;;;;4953892;29;20122;-89
2023/06/02 15:11:32;;;;;;;11.65;3.78;;;;;;;;;;4939917;29;20046;-89
2023/06/02 15:14:18;;;;;;;8.63;3.33;;;20.40;86.10;;;;;;4954751;28;20090;-89
2023/06/02 15:17:10;;;;;;;8.38;3.17;;;;;;;;;;4941166;29;20503;-89
2023/06/02 15:19:55;;;;;;;10.10;4.22;;;;;;;;;;4939310;29;20050;-88
2023/06/02 15:22:39;;;;;;;6.93;3.25;;;;;;;;;;4925888;29;20073;-89
2023/06/02 15:25:24;;;;;;;12.48;3.40;;;;;;;;;;4956108;29;20630;-90
2023/06/02 15:28:09;;;;;;;6.40;3.28;;;;;;;;;;4939479;29;20538;-88
2023/06/02 15:30:53;;;;;;;9.57;3.47;;;;;;;;;;4938954;28;20095;-89
2023/06/02 15:33:39;;;;;;;7.28;3.15;;;;;;;;;;4953843;29;20121;-92
2023/06/02 15:36:29;;;;;;;8.13;3.00;;;;;;;;;;4928960;29;20078;-88
2023/06/02 15:39:16;;;;;;;9.93;4.07;;;20.70;87.50;;;;;;4957600;28;20050;-89
2023/06/02 15:42:03;;;;;;;8.48;3.22;;;;;;;;;;4957187;29;20078;-89
2023/06/02 15:44:48;;;;;;;9.35;2.80;;;;;;;;;;4943059;29;20123;-91
2023/06/02 15:47:37;;;;;;;9.23;2.80;;;20.80;86.80;;;;;;4957465;28;20588;-88
2023/06/02 15:50:22;;;;;;;6.88;2.83;;;;;;;;;;4933492;29;20054;-89
2023/06/02 15:53:09;;;;;;;9.88;4.07;;;;;;;;;;4942308;29;20093;-89
2023/06/02 15:55:56;;;;;;;6.60;2.92;;;;;;;;;;4956726;28;20038;-89
2023/06/02 15:58:41;;;;;;;8.40;2.58;;;;;;;;;;4942003;28;20046;-93
2023/06/02 16:01:27;;;;;;;7.55;3.17;;;;;;;;;;4942428;29;20403;-90
2023/06/02 16:04:11;;;;;;;7.40;3.00;;;;;;;;;;4941003;29;20044;-88
2023/06/02 16:06:59;;;;;;;7.80;3.22;;;;;;;;;;4956816;29;20547;-89
2023/06/02 16:09:44;;;;;;;6.13;2.83;;;;;;;;;;4957287;29;20046;-93